Time;durP1;ratioP1;P1;durP2;ratioP2;P2;SDS_P1;SDS_P2;PMS_P1;PMS_P2;Temp;Humidity;BMP_temperature;BMP_pressure;BME280_temperature;BME280_humidity;BME280_pressure;Samples;Min_cycle;Max_cycle;Signal;HPM_P1;HPM_P2
2023/10/20 00:00:20;;;;;;;54.92;21.85;;;;;;;;;;5050537;28;20486;-68
2023/10/20 00:02:47;;;;;;;51.85;21.30;;;;;;;;;;5051515;28;20041;-68
2023/10/20 00:05:13;;;;;;;50.67;22.15;;;;;;;;;;5032814;28;20045;-68
2023/10/20 00:07:40;;;;;;;55.05;21.50;;;;;;;;;;5049553;28;20137;-68
2023/10/20 00:10:09;;;;;;;49.50;21.20;;;;;;;;;;5051031;28;20433;-68
2023/10/20 00:12:35;;;;;;;48.38;21.42;;;;;;;;;;5051001;28;20033;-68
2023/10/20 00:15:01;;;;;;;46.75;21.63;;;;;;;;;;5050257;28;20073;-68
2023/10/20 00:17:27;;;;;;;56.10;21.80;;;;;;;;;;5049812;28;20079;-68
2023/10/20 00:19:53;;;;;;;46.13;20.25;;;;;;;;;;5050970;28;20629;-68
2023/10/20 00:22:19;;;;;;;45.90;19.60;;;;;;;;;;5051051;28;20045;-69
2023/10/20 00:24:45;;;;;;;46.85;20.73;;;;;;;;;;5050431;28;20483;-69
2023/10/20 00:27:13;;;;;;;50.00;21.27;;;;;;;;;;5049885;28;20532;-68
2023/10/20 00:29:40;;;;;;;56.83;22.10;;;;;;;;;;5050534;28;20049;-68
2023/10/20 00:32:07;;;;;;;59.38;21.77;;;;;;;;;;5047725;28;20107;-68
2023/10/20 00:34:33;;;;;;;52.92;20.60;;;;;;;;;;5051464;28;20402;-68
2023/10/20 00:36:59;;;;;;;52.50;20.48;;;;;;;;;;5050745;28;20094;-68
2023/10/20 00:39:25;;;;;;;48.55;21.02;;;;;;;;;;5052671;28;20399;-68
2023/10/20 00:41:51;;;;;;;47.90;20.55;;;;;;;;;;5054592;28;20048;-68
2023/10/20 00:44:17;;;;;;;53.10;20.63;;;;;;;;;;5054913;28;20083;-68
2023/10/20 00:46:43;;;;;;;51.78;21.65;;;;;;;;;;5053700;28;20040;-68
2023/10/20 00:49:09;;;;;;;52.00;20.77;;;;;;;;;;5052658;28;20592;-68
2023/10/20 00:51:35;;;;;;;53.75;21.25;;;;;;;;;;5054422;28;20162;-68
2023/10/20 00:54:02;;;;;;;47.95;20.30;;;;;;;;;;5054403;28;20435;-68
2023/10/20 00:56:29;;;;;;;59.08;21.70;;;;;;;;;;5053156;28;20045;-69
2023/10/20 00:58:55;;;;;;;57.72;20.73;;;;;;;;;;5053651;28;20052;-69
2023/10/20 01:01:21;;;;;;;55.72;21.13;;;;;;;;;;5054436;28;20044;-69
2023/10/20 01:03:49;;;;;;;56.60;19.50;;;;;;;;;;5053844;28;20479;-69
2023/10/20 01:06:15;;;;;;;52.20;19.65;;;;;;;;;;5034219;28;20075;-69
2023/10/20 01:08:41;;;;;;;51.35;20.60;;;;;;;;;;5052563;28;20037;-69
2023/10/20 01:11:07;;;;;;;64.30;21.48;;;;;;;;;;5053671;28;20049;-69
2023/10/20 01:13:33;;;;;;;51.70;19.85;;;;;;;;;;5054467;28;20039;-69
2023/10/20 01:15:59;;;;;;;49.95;20.67;;;;;;;;;;5052711;28;20416;-69
2023/10/20 01:18:25;;;;;;;46.10;19.77;;;;;;;;;;5053635;28;20091;-69
2023/10/20 01:20:51;;;;;;;53.58;20.20;;;;;;;;;;5053404;28;20040;-69
2023/10/20 01:23:17;;;;;;;50.55;20.52;;;;;;;;;;5051917;28;20099;-69
2023/10/20 01:25:43;;;;;;;52.45;20.73;;;;;;;;;;5052874;28;20049;-69
2023/10/20 01:28:10;;;;;;;52.50;19.75;;;;;;;;;;5052422;28;20053;-69
2023/10/20 01:30:36;;;;;;;48.00;21.02;;;;;;;;;;5053454;28;20116;-69
2023/10/20 01:33:02;;;;;;;60.75;19.52;;;;;;;;;;5035115;28;20041;-69
2023/10/20 01:35:28;;;;;;;51.42;19.48;;;;;;;;;;5047570;28;20564;-69
2023/10/20 01:37:54;;;;;;;52.08;19.48;;;;;;;;;;5053427;28;20067;-69
2023/10/20 01:40:21;;;;;;;55.42;20.73;;;;;;;;;;5051858;28;20491;-69
2023/10/20 01:42:47;;;;;;;57.75;22.95;;;;;;;;;;5053242;28;20044;-69
2023/10/20 01:45:13;;;;;;;48.55;20.25;;;;;;;;;;5033339;28;20052;-69
2023/10/20 01:47:40;;;;;;;49.28;20.30;;;;;;;;;;5053425;28;20094;-69
2023/10/20 01:50:06;;;;;;;52.50;21.20;;;;;;;;;;5051988;28;20041;-69
2023/10/20 01:52:32;;;;;;;57.47;20.58;;;;;;;;;;5053348;28;20044;-69
2023/10/20 01:54:59;;;;;;;50.90;21.10;;;;;;;;;;5048398;28;20398;-69
2023/10/20 01:57:25;;;;;;;45.88;20.88;;;;;;;;;;5052570;28;20045;-69
2023/10/20 01:59:51;;;;;;;51.25;21.48;;;;;;;;;;5051352;28;20041;-69
2023/10/20 02:02:17;;;;;;;48.10;21.35;;;;;;;;;;5050738;28;20064;-69
2023/10/20 02:04:43;;;;;;;54.97;21.00;;;;;;;;;;5051763;28;20041;-69
2023/10/20 02:07:09;;;;;;;49.35;19.95;;;;;;;;;;5051208;28;20128;-69
2023/10/20 02:09:35;;;;;;;60.75;21.25;;;;;;;;;;5051619;28;20037;-69
2023/10/20 02:12:03;;;;;;;47.40;21.20;;;;;;;;;;5034429;28;20041;-69
2023/10/20 02:14:30;;;;;;;53.03;20.40;;;;;;;;;;5053178;28;20041;-69
2023/10/20 02:16:56;;;;;;;48.20;20.77;;;;;;;;;;5051776;28;20037;-69
2023/10/20 02:19:22;;;;;;;51.95;20.83;;;;;;;;;;5052592;28;20033;-69
2023/10/20 02:21:48;;;;;;;45.30;19.88;;;;;;;;;;5052810;28;20050;-69
2023/10/20 02:24:14;;;;;;;53.08;20.50;;;;;;;;;;5050868;28;20029;-69
2023/10/20 02:26:40;;;;;;;51.20;20.20;;;;;;;;;;5051967;28;20029;-69
2023/10/20 02:29:06;;;;;;;42.65;19.77;;;;;;;;;;5052464;28;20045;-69
2023/10/20 02:31:32;;;;;;;45.08;20.17;;;;;;;;;;5051932;28;20368;-69
2023/10/20 02:33:58;;;;;;;49.25;20.30;;;;;;;;;;5052572;28;20108;-69
2023/10/20 02:36:24;;;;;;;46.05;20.73;;;;;;;;;;5051856;28;20491;-69
2023/10/20 02:38:55;;;;;;;46.35;19.85;;;;;;;;;;5049878;28;20386;-69
2023/10/20 02:41:21;;;;;;;49.87;19.77;;;;;;;;;;5051702;28;20053;-69
2023/10/20 02:43:47;;;;;;;46.00;19.88;;;;;;;;;;5052493;28;20036;-69
2023/10/20 02:46:13;;;;;;;50.60;20.65;;;;;;;;;;5051614;28;20072;-69
2023/10/20 02:48:40;;;;;;;46.85;20.60;;;;;;;;;;5051700;28;20479;-69
2023/10/20 02:51:13;;;;;;;47.22;20.08;;;;;;;;;;5051920;28;20052;-69
2023/10/20 02:53:42;;;;;;;47.78;20.33;;;;;;;;;;5051249;28;20033;-69
2023/10/20 02:56:11;;;;;;;50.85;20.15;;;;;;;;;;5051284;28;20395;-69
2023/10/20 02:58:37;;;;;;;47.10;20.63;;;;;;;;;;5051124;28;20112;-68
2023/10/20 03:01:05;;;;;;;46.67;20.27;;;;;;;;;;5051713;28;20441;-68
2023/10/20 03:03:31;;;;;;;37.95;17.95;;;;;;;;;;5046285;28;20364;-68
2023/10/20 03:05:57;;;;;;;43.28;19.50;;;;;;;;;;5051115;28;20071;-68
2023/10/20 03:08:23;;;;;;;46.20;20.75;;;;;;;;;;5049985;28;20064;-68
2023/10/20 03:10:49;;;;;;;52.33;19.92;;;;;;;;;;5051950;28;20048;-68
2023/10/20 03:13:17;;;;;;;39.03;17.88;;;;;;;;;;5051595;28;20090;-68
2023/10/20 03:15:43;;;;;;;38.83;18.67;;;;;;;;;;5050881;28;20048;-68
2023/10/20 03:18:08;;;;;;;40.30;18.95;;;;;;;;;;5051393;28;20499;-68
2023/10/20 03:20:36;;;;;;;41.38;18.67;;;;;;;;;;5052037;28;20037;-68
2023/10/20 03:23:03;;;;;;;43.80;19.52;;;;;;;;;;5050371;28;20095;-68
2023/10/20 03:25:32;;;;;;;43.25;19.00;;;;;;;;;;5049832;28;20041;-68
2023/10/20 03:27:59;;;;;;;45.35;19.60;;;;;;;;;;5051385;28;20514;-68
2023/10/20 03:30:25;;;;;;;42.33;19.30;;;;;;;;;;5051053;28;20041;-68
2023/10/20 03:32:51;;;;;;;36.97;17.75;;;;;;;;;;5051713;28;20483;-68
2023/10/20 03:35:17;;;;;;;36.30;18.23;;;;;;;;;;5050951;28;20110;-68
2023/10/20 03:37:43;;;;;;;39.78;18.00;;;;;;;;;;5050633;28;20036;-68
2023/10/20 03:40:13;;;;;;;39.15;17.45;;;;;;;;;;5076138;22;20051;-71
2023/10/20 03:42:41;;;;;;;36.13;18.13;;;;;;;;;;5053359;28;20037;-71
2023/10/20 03:45:09;;;;;;;37.83;18.13;;;;;;;;;;5052521;28;20060;-72
2023/10/20 03:47:38;;;;;;;38.17;17.65;;;;;;;;;;5046616;28;20476;-72
2023/10/20 03:50:13;;;;;;;36.75;17.77;;;;;;;;;;5073093;28;20056;-72
2023/10/20 03:52:41;;;;;;;33.45;16.80;;;;;;;;;;5091413;28;20032;-72
2023/10/20 03:55:13;;;;;;;41.25;17.88;;;;;;;;;;5090588;28;20058;-72
2023/10/20 03:57:40;;;;;;;39.90;17.38;;;;;;;;;;5072948;28;20047;-73
2023/10/20 04:00:22;;;;;;;39.03;18.48;;;;;;;;;;5071783;28;20075;-73
2023/10/20 04:02:49;;;;;;;39.85;19.13;;;;;;;;;;5085421;28;20040;-72
2023/10/20 04:05:16;;;;;;;40.88;17.55;;;;;;;;;;5070124;28;20698;-73
2023/10/20 04:07:42;;;;;;;39.63;17.80;;;;;;;;;;5090615;28;20485;-72
2023/10/20 04:10:08;;;;;;;39.65;17.35;;;;;;;;;;5089761;28;20032;-73
2023/10/20 04:12:34;;;;;;;37.05;17.83;;;;;;;;;;5085848;28;20482;-72
2023/10/20 04:15:00;;;;;;;43.70;18.88;;;;;;;;;;5094763;28;20047;-72
2023/10/20 04:17:26;;;;;;;40.03;18.23;;;;;;;;;;5095038;28;20402;-72
2023/10/20 04:19:52;;;;;;;42.78;18.95;;;;;;;;;;5094172;28;20115;-72
2023/10/20 04:22:18;;;;;;;42.33;18.30;;;;;;;;;;5095443;28;20051;-72
2023/10/20 04:24:44;;;;;;;42.15;19.27;;;;;;;;;;5094119;28;20059;-72
2023/10/20 04:27:44;;;;;;;36.67;18.38;;;;;;;;;;5095242;28;20370;-72
2023/10/20 04:49:58;;;;;;;36.33;17.05;;;;;;;;;;5090166;28;20097;-72
2023/10/20 04:52:53;;;;;;;38.30;17.55;;;;;;;;;;5089788;28;20582;-72
2023/10/20 05:02:43;;;;;;;;;;;;;;;;;;5086551;28;20081;-73
2023/10/20 05:05:26;;;;;;;36.67;17.42;;;;;;;;;;5091014;28;20014;-73
2023/10/20 05:07:53;;;;;;;37.10;17.63;;;;;;;;;;5087795;28;20059;-73
2023/10/20 05:10:19;;;;;;;35.67;17.15;;;;;;;;;;5092764;28;20094;-72
2023/10/20 05:12:46;;;;;;;34.65;16.75;;;;;;;;;;5093428;28;20036;-72
2023/10/20 05:15:12;;;;;;;35.35;17.45;;;;;;;;;;5093175;28;20036;-73
2023/10/20 05:17:38;;;;;;;31.92;16.55;;;;;;;;;;5073790;28;20051;-73
2023/10/20 05:20:10;;;;;;;36.53;17.85;;;;;;;;;;5089587;28;20036;-73
2023/10/20 05:22:35;;;;;;;;;;;;;;;;;;5076011;28;20482;-73
2023/10/20 05:25:02;;;;;;;26.75;15.40;;;;;;;;;;5074371;28;19955;-73
2023/10/20 05:27:28;;;;;;;30.05;15.40;;;;;;;;;;5089805;28;20032;-73
2023/10/20 05:29:54;;;;;;;30.45;16.15;;;;;;;;;;5087392;28;20505;-73
2023/10/20 05:32:20;;;;;;;31.00;15.93;;;;;;;;;;5073935;28;20105;-73
2023/10/20 05:34:46;;;;;;;30.40;15.63;;;;;;;;;;5091281;28;20393;-73
2023/10/20 05:37:12;;;;;;;28.70;15.32;;;;;;;;;;5089904;28;20036;-73
2023/10/20 05:39:38;;;;;;;26.90;14.63;;;;;;;;;;5093150;28;20050;-73
2023/10/20 05:42:04;;;;;;;29.75;14.73;;;;;;;;;;5093517;28;20040;-72
2023/10/20 05:44:34;;;;;;;28.88;15.52;;;;;;;;;;5092906;28;20404;-72
2023/10/20 05:47:00;;;;;;;27.85;14.38;;;;;;;;;;5092663;28;20147;-72
2023/10/20 05:49:26;;;;;;;31.05;14.40;;;;;;;;;;5091946;28;20451;-72
2023/10/20 05:51:52;;;;;;;28.42;14.00;;;;;;;;;;5091592;28;20478;-73
2023/10/20 05:54:23;;;;;;;26.25;13.30;;;;;;;;;;5092489;28;20047;-73
2023/10/20 05:56:49;;;;;;;24.65;12.77;;;;;;;;;;5092484;28;20054;-73
2023/10/20 05:59:15;;;;;;;24.27;12.55;;;;;;;;;;5091808;28;20036;-72
2023/10/20 06:01:41;;;;;;;24.55;12.68;;;;;;;;;;5090356;28;20040;-72
2023/10/20 06:04:08;;;;;;;27.17;12.35;;;;;;;;;;5092603;28;20044;-73
2023/10/20 06:06:34;;;;;;;26.88;13.02;;;;;;;;;;5092900;28;20052;-72
2023/10/20 06:09:00;;;;;;;27.85;13.07;;;;;;;;;;5074177;28;20059;-72
2023/10/20 06:11:26;;;;;;;25.85;12.88;;;;;;;;;;5092367;28;20085;-72
2023/10/20 06:13:51;;;;;;;27.90;13.18;;;;;;;;;;5092940;28;20032;-72
2023/10/20 06:16:18;;;;;;;24.90;12.30;;;;;;;;;;5073821;28;20051;-72
2023/10/20 06:18:44;;;;;;;22.77;11.40;;;;;;;;;;5072616;28;20043;-72
2023/10/20 06:21:14;;;;;;;22.33;11.48;;;;;;;;;;5092121;28;20088;-72
2023/10/20 06:23:40;;;;;;;26.65;12.48;;;;;;;;;;5088316;28;20063;-72
2023/10/20 06:26:06;;;;;;;21.95;12.35;;;;;;;;;;5089224;28;20489;-72
2023/10/20 06:28:32;;;;;;;20.15;10.55;;;;;;;;;;5085875;28;20040;-73
2023/10/20 06:31:01;;;;;;;21.02;11.75;;;;;;;;;;5084263;28;20049;-72
2023/10/20 06:33:32;;;;;;;22.13;11.40;;;;;;;;;;5092274;28;20581;-73
2023/10/20 06:36:08;;;;;;;;;;;;;;;;;;5085205;28;20058;-73
2023/10/20 06:38:40;;;;;;;17.58;10.18;;;;;;;;;;5072804;28;19927;-73
2023/10/20 06:41:07;;;;;;;19.63;10.13;;;;;;;;;;5091695;28;20061;-73
2023/10/20 06:43:33;;;;;;;16.35;9.38;;;;;;;;;;5086706;28;20043;-73
2023/10/20 06:45:59;;;;;;;17.42;10.45;;;;;;;;;;5087745;28;20413;-73
2023/10/20 06:48:26;;;;;;;18.05;9.85;;;;;;;;;;5087682;28;20036;-73
2023/10/20 06:50:52;;;;;;;19.23;9.48;;;;;;;;;;5088423;28;20375;-72
2023/10/20 06:53:18;;;;;;;17.52;9.48;;;;;;;;;;5090440;28;20038;-72
2023/10/20 06:55:46;;;;;;;19.15;10.23;;;;;;;;;;5091552;28;20032;-72
2023/10/20 06:58:13;;;;;;;18.23;10.15;;;;;;;;;;5087914;28;20040;-72
2023/10/20 07:00:39;;;;;;;18.30;10.52;;;;;;;;;;5090415;28;20122;-73
2023/10/20 07:03:05;;;;;;;16.77;9.48;;;;;;;;;;5087561;28;20386;-73
2023/10/20 07:05:31;;;;;;;15.65;9.32;;;;;;;;;;5088462;28;20040;-72
2023/10/20 07:08:00;;;;;;;17.85;9.73;;;;;;;;;;5090622;28;20093;-73
2023/10/20 07:10:27;;;;;;;16.88;9.65;;;;;;;;;;5091538;28;20044;-73
2023/10/20 07:12:53;;;;;;;18.65;9.52;;;;;;;;;;5090470;28;20035;-73
2023/10/20 07:15:19;;;;;;;16.35;9.35;;;;;;;;;;5091789;28;20051;-73
2023/10/20 07:17:45;;;;;;;17.10;9.88;;;;;;;;;;5090280;28;20036;-73
2023/10/20 07:20:11;;;;;;;15.95;9.50;;;;;;;;;;5091499;28;20240;-73
2023/10/20 07:22:37;;;;;;;15.10;9.35;;;;;;;;;;5089747;28;20040;-73
2023/10/20 07:25:03;;;;;;;17.00;9.88;;;;;;;;;;5090681;28;20063;-72
2023/10/20 07:27:29;;;;;;;17.48;10.00;;;;;;;;;;5088401;28;20040;-72
2023/10/20 07:29:57;;;;;;;17.88;10.43;;;;;;;;;;5072017;28;20504;-73
2023/10/20 07:32:23;;;;;;;16.58;9.27;;;;;;;;;;5090398;28;20035;-72
2023/10/20 07:34:49;;;;;;;16.80;9.68;;;;;;;;;;5090921;28;20038;-73
2023/10/20 07:37:15;;;;;;;16.13;9.70;;;;;;;;;;5090438;28;20473;-72
2023/10/20 07:39:41;;;;;;;13.48;10.02;;;;;;;;;;5089027;28;20559;-72
2023/10/20 07:42:07;;;;;;;18.40;10.77;;;;;;;;;;5090060;28;20047;-72
2023/10/20 07:44:33;;;;;;;14.60;9.68;;;;;;;;;;5091102;28;20505;-73
2023/10/20 07:47:00;;;;;;;14.40;9.52;;;;;;;;;;5088622;28;20046;-72
2023/10/20 07:49:26;;;;;;;13.10;9.18;;;;;;;;;;5094953;28;20039;-71
2023/10/20 07:51:52;;;;;;;11.82;8.52;;;;;;;;;;5096329;28;20035;-72
2023/10/20 07:54:18;;;;;;;14.68;8.85;;;;;;;;;;5097881;28;20047;-72
2023/10/20 07:56:44;;;;;;;13.00;8.43;;;;;;;;;;5095789;28;20039;-72
2023/10/20 07:59:11;;;;;;;11.45;8.02;;;;;;;;;;5098054;28;20490;-72
2023/10/20 08:01:36;;;;;;;10.50;7.10;;;;;;;;;;5078831;28;20073;-72
2023/10/20 08:04:02;;;;;;;11.60;7.03;;;;;;;;;;5098419;28;20119;-71
2023/10/20 08:06:28;;;;;;;11.32;8.05;;;;;;;;;;5079262;28;20541;-71
2023/10/20 08:08:55;;;;;;;9.88;6.75;;;;;;;;;;5098071;28;20047;-72
2023/10/20 08:11:21;;;;;;;9.98;6.22;;;;;;;;;;5095949;28;20517;-72
2023/10/20 08:13:50;;;;;;;9.07;5.75;;;;;;;;;;5097527;28;20060;-72
2023/10/20 08:16:16;;;;;;;10.00;5.50;;;;;;;;;;5094271;28;20066;-72
2023/10/20 08:18:42;;;;;;;8.57;5.53;;;;;;;;;;5097687;28;20047;-72
2023/10/20 08:21:09;;;;;;;9.82;5.85;;;;;;;;;;5097604;28;20043;-72
2023/10/20 08:23:38;;;;;;;8.25;5.03;;;;;;;;;;5097936;28;20097;-73
2023/10/20 08:26:05;;;;;;;7.53;4.78;;;;;;;;;;5098096;28;20039;-73
2023/10/20 08:28:31;;;;;;;8.45;4.38;;;;;;;;;;5097342;28;20039;-73
2023/10/20 08:31:05;;;;;;;7.35;4.88;;;;;;;;;;5096310;28;20075;-73
2023/10/20 08:33:30;;;;;;;7.35;4.38;;;;;;;;;;5097613;28;20046;-73
2023/10/20 08:35:56;;;;;;;8.77;4.80;;;;;;;;;;5098030;28;20413;-73
2023/10/20 08:38:22;;;;;;;6.60;3.88;;;;;;;;;;5093709;28;20085;-73
2023/10/20 08:40:48;;;;;;;6.22;3.92;;;;;;;;;;5074170;28;20044;-73
2023/10/20 08:43:14;;;;;;;7.32;3.95;;;;;;;;;;5079869;28;20058;-73
2023/10/20 08:45:41;;;;;;;5.18;3.40;;;;;;;;;;5077313;28;20040;-73
2023/10/20 08:48:08;;;;;;;5.70;3.45;;;;;;;;;;5076165;28;20494;-73
2023/10/20 08:50:35;;;;;;;4.75;3.17;;;;;;;;;;5092174;28;20041;-73
2023/10/20 08:53:01;;;;;;;4.28;3.42;;;;;;;;;;5096306;28;20044;-73
2023/10/20 08:55:27;;;;;;;3.78;3.20;;;;;;;;;;5097319;28;20039;-74
2023/10/20 08:57:54;;;;;;;3.15;2.35;;;;;;;;;;5097267;28;20028;-73
2023/10/20 09:00:20;;;;;;;4.72;2.55;;;;;;;;;;5094219;28;20067;-73
2023/10/20 09:02:47;;;;;;;4.88;3.00;;;;;;;;;;5092756;28;20044;-73
2023/10/20 09:05:20;;;;;;;4.03;2.47;;;;;;;;;;5075593;28;20066;-72
2023/10/20 09:07:53;;;;;;;2.70;2.22;;;;;;;;;;5085366;28;20032;-72
2023/10/20 09:10:19;;;;;;;3.35;2.17;;;;;;;;;;5089897;28;20512;-72
2023/10/20 09:12:45;;;;;;;3.05;2.10;;;;;;;;;;5072274;28;20119;-72
2023/10/20 09:15:11;;;;;;;3.97;2.22;;;;;;;;;;5087697;28;20036;-72
2023/10/20 09:17:37;;;;;;;2.88;2.40;;;;;;;;;;5090620;28;20123;-72
2023/10/20 09:20:07;;;;;;;3.30;2.35;;;;;;;;;;5070051;28;20389;-72
2023/10/20 09:22:33;;;;;;;2.83;2.08;;;;;;;;;;5089392;28;20036;-73
2023/10/20 09:24:59;;;;;;;3.38;2.35;;;;;;;;;;5089712;28;20040;-72
2023/10/20 09:27:25;;;;;;;2.90;2.20;;;;;;;;;;5072229;28;20074;-73
2023/10/20 09:29:51;;;;;;;2.75;2.10;;;;;;;;;;5073657;28;20048;-73
2023/10/20 09:32:18;;;;;;;3.13;2.40;;;;;;;;;;5093090;28;20040;-72
2023/10/20 09:34:44;;;;;;;2.50;2.10;;;;;;;;;;5089280;28;20035;-73
2023/10/20 09:37:11;;;;;;;3.20;1.92;;;;;;;;;;5089425;28;20032;-72
2023/10/20 09:39:43;;;;;;;3.10;2.03;;;;;;;;;;5112517;22;20443;-69
2023/10/20 09:42:14;;;;;;;2.47;1.90;;;;;;;;;;5111576;28;20035;-69
2023/10/20 09:44:46;;;;;;;2.38;1.85;;;;;;;;;;5110836;28;20478;-69
2023/10/20 09:47:23;;;;;;;2.75;1.80;;;;;;;;;;5105523;28;20046;-69
2023/10/20 09:49:51;;;;;;;3.05;1.83;;;;;;;;;;5090774;28;20085;-69
2023/10/20 09:52:17;;;;;;;2.30;1.75;;;;;;;;;;5092896;28;20051;-70
2023/10/20 09:54:43;;;;;;;1.95;1.70;;;;;;;;;;5093029;28;20039;-70
2023/10/20 09:57:12;;;;;;;1.73;1.60;;;;;;;;;;5091321;28;20031;-70
2023/10/20 09:59:39;;;;;;;2.78;1.60;;;;;;;;;;5091725;28;20124;-70
2023/10/20 10:02:06;;;;;;;1.73;1.60;;;;;;;;;;5092979;28;20075;-70
2023/10/20 10:04:43;;;;;;;2.20;1.50;;;;;;;;;;5074407;28;20513;-70
2023/10/20 10:07:09;;;;;;;1.63;1.40;;;;;;;;;;5091798;28;20044;-70
2023/10/20 10:09:36;;;;;;;1.60;1.50;;;;;;;;;;5091882;28;20040;-70
2023/10/20 10:12:07;;;;;;;2.10;1.48;;;;;;;;;;5073599;28;20048;-70
2023/10/20 10:14:33;;;;;;;1.38;1.27;;;;;;;;;;5093104;28;20051;-70
2023/10/20 10:17:01;;;;;;;2.50;1.50;;;;;;;;;;5091607;28;20032;-71
2023/10/20 10:19:28;;;;;;;2.33;1.52;;;;;;;;;;5088683;28;20040;-71
2023/10/20 10:21:57;;;;;;;1.95;1.33;;;;;;;;;;5092469;28;20036;-71
2023/10/20 10:24:24;;;;;;;1.55;1.25;;;;;;;;;;5092384;28;20048;-71
2023/10/20 10:26:54;;;;;;;1.40;1.30;;;;;;;;;;5092542;28;20667;-71
2023/10/20 10:29:22;;;;;;;1.90;1.50;;;;;;;;;;5090228;28;20070;-71
2023/10/20 10:31:48;;;;;;;1.60;1.40;;;;;;;;;;5091672;28;20399;-70
2023/10/20 10:34:15;;;;;;;1.30;1.20;;;;;;;;;;5091934;28;20038;-70
2023/10/20 10:36:44;;;;;;;1.30;1.20;;;;;;;;;;5093136;28;20035;-70
2023/10/20 10:39:29;;;;;;;1.40;1.30;;;;;;;;;;5089795;28;20512;-70
2023/10/20 10:42:02;;;;;;;1.50;1.30;;;;;;;;;;5089186;28;20081;-70
2023/10/20 10:44:34;;;;;;;1.30;1.20;;;;;;;;;;5087958;28;20089;-70
2023/10/20 10:47:01;;;;;;;1.30;1.20;;;;;;;;;;5089353;28;20067;-70
2023/10/20 10:49:27;;;;;;;1.20;1.10;;;;;;;;;;5085508;28;20032;-70
2023/10/20 10:51:53;;;;;;;1.42;1.08;;;;;;;;;;5086438;28;20082;-70
2023/10/20 10:54:19;;;;;;;1.70;0.98;;;;;;;;;;5067945;28;20048;-70
2023/10/20 10:56:45;;;;;;;1.00;0.90;;;;;;;;;;5091496;28;20043;-70
2023/10/20 10:59:12;;;;;;;1.20;1.10;;;;;;;;;;5087467;28;20032;-70
2023/10/20 11:01:42;;;;;;;1.05;0.95;;;;;;;;;;5087957;28;20442;-70
2023/10/20 11:04:11;;;;;;;1.83;1.10;;;;;;;;;;5087786;28;20140;-70
2023/10/20 11:06:38;;;;;;;1.60;0.93;;;;;;;;;;5089394;28;20447;-70
2023/10/20 11:09:10;;;;;;;1.77;0.88;;;;;;;;;;5089417;28;20040;-70
2023/10/20 11:11:45;;;;;;;1.08;0.98;;;;;;;;;;5084678;28;20440;-71
2023/10/20 11:14:11;;;;;;;1.00;0.90;;;;;;;;;;5090270;28;20402;-71
2023/10/20 11:16:37;;;;;;;1.75;1.08;;;;;;;;;;5091541;28;20046;-71
2023/10/20 11:19:03;;;;;;;1.20;1.00;;;;;;;;;;5086064;28;20040;-71
2023/10/20 11:21:29;;;;;;;3.05;1.15;;;;;;;;;;5071209;28;20724;-71
2023/10/20 11:23:58;;;;;;;2.10;0.90;;;;;;;;;;5070244;28;20176;-71
2023/10/20 11:26:25;;;;;;;1.95;1.00;;;;;;;;;;5068303;28;20040;-71
2023/10/20 11:28:51;;;;;;;1.10;1.00;;;;;;;;;;5078827;28;20067;-71
2023/10/20 11:31:19;;;;;;;1.25;1.15;;;;;;;;;;5087831;28;20040;-71
2023/10/20 11:33:45;;;;;;;3.70;1.30;;;;;;;;;;5070284;28;20154;-71
2023/10/20 11:36:10;;;;;;;2.10;1.25;;;;;;;;;;5088731;28;20119;-71
2023/10/20 11:38:36;;;;;;;2.20;1.20;;;;;;;;;;5087465;28;20036;-71
2023/10/20 11:41:02;;;;;;;1.30;1.20;;;;;;;;;;5086657;28;20039;-71
2023/10/20 11:43:28;;;;;;;1.35;1.10;;;;;;;;;;5089439;28;20044;-71
2023/10/20 11:45:54;;;;;;;1.30;1.20;;;;;;;;;;5085897;28;20078;-72
2023/10/20 11:48:21;;;;;;;1.10;1.00;;;;;;;;;;5085373;28;20193;-71
2023/10/20 11:50:47;;;;;;;1.25;0.90;;;;;;;;;;5075901;28;20101;-71
2023/10/20 11:53:13;;;;;;;1.65;0.80;;;;;;;;;;5081162;28;20036;-71
2023/10/20 11:55:39;;;;;;;1.30;0.82;;;;;;;;;;5083744;28;20461;-71
2023/10/20 11:58:05;;;;;;;0.82;0.70;;;;;;;;;;5085578;28;20052;-71
2023/10/20 12:00:32;;;;;;;0.88;0.70;;;;;;;;;;5090624;28;20531;-71
2023/10/20 12:02:58;;;;;;;1.65;0.80;;;;;;;;;;5089135;28;20036;-71
2023/10/20 12:05:24;;;;;;;0.95;0.70;;;;;;;;;;5085189;28;20043;-71
2023/10/20 12:07:51;;;;;;;1.00;0.90;;;;;;;;;;5087672;28;20035;-71
2023/10/20 12:10:17;;;;;;;0.55;0.55;;;;;;;;;;5087520;28;20036;-71
2023/10/20 12:12:43;;;;;;;0.88;0.77;;;;;;;;;;5090092;28;20089;-71
2023/10/20 12:15:09;;;;;;;0.80;0.60;;;;;;;;;;5086668;28;20075;-71
2023/10/20 12:17:36;;;;;;;0.60;0.60;;;;;;;;;;5084220;28;20505;-71
2023/10/20 12:20:02;;;;;;;0.68;0.68;;;;;;;;;;5087096;28;20035;-72
2023/10/20 12:22:28;;;;;;;1.42;0.50;;;;;;;;;;5089403;28;20094;-72
2023/10/20 12:24:54;;;;;;;0.60;0.50;;;;;;;;;;5086588;28;20036;-72
2023/10/20 12:27:21;;;;;;;0.50;0.50;;;;;;;;;;5083998;28;20048;-72
2023/10/20 12:29:47;;;;;;;1.05;0.57;;;;;;;;;;5089043;28;20047;-72
2023/10/20 12:32:13;;;;;;;1.52;0.60;;;;;;;;;;5089229;28;20058;-72
2023/10/20 12:34:39;;;;;;;0.73;0.60;;;;;;;;;;5092614;28;20550;-72
2023/10/20 12:37:05;;;;;;;0.50;0.50;;;;;;;;;;5094130;28;20040;-72
2023/10/20 12:39:34;;;;;;;0.55;0.52;;;;;;;;;;5093372;28;20047;-72
2023/10/20 12:42:04;;;;;;;1.25;0.52;;;;;;;;;;5093860;28;20493;-72
2023/10/20 12:44:30;;;;;;;0.70;0.60;;;;;;;;;;5075931;28;20043;-72
2023/10/20 12:46:57;;;;;;;0.57;0.50;;;;;;;;;;5092111;28;20047;-72
2023/10/20 12:49:23;;;;;;;0.52;0.50;;;;;;;;;;5094153;28;20040;-72
2023/10/20 12:51:49;;;;;;;0.70;0.40;;;;;;;;;;5093550;28;20092;-72
2023/10/20 12:54:15;;;;;;;0.68;0.55;;;;;;;;;;5087367;28;20032;-72
2023/10/20 12:56:41;;;;;;;0.75;0.50;;;;;;;;;;5088533;28;20115;-72
2023/10/20 12:59:07;;;;;;;0.80;0.68;;;;;;;;;;5090810;28;20044;-71
2023/10/20 13:01:33;;;;;;;0.52;0.50;;;;;;;;;;5092306;28;20039;-71
2023/10/20 13:03:59;;;;;;;0.50;0.50;;;;;;;;;;5091095;28;20160;-71
2023/10/20 13:06:25;;;;;;;0.50;0.50;;;;;;;;;;5093505;28;20139;-72
2023/10/20 13:08:52;;;;;;;0.75;0.40;;;;;;;;;;5093308;28;20044;-72
2023/10/20 13:11:18;;;;;;;1.05;0.43;;;;;;;;;;5094292;28;20051;-72
2023/10/20 13:13:44;;;;;;;1.15;0.50;;;;;;;;;;5091003;28;20028;-72
2023/10/20 13:16:10;;;;;;;0.80;0.60;;;;;;;;;;5092150;28;20046;-72
2023/10/20 13:18:36;;;;;;;0.60;0.52;;;;;;;;;;5091551;28;20035;-72
2023/10/20 13:21:05;;;;;;;0.57;0.40;;;;;;;;;;5091836;28;20109;-71
2023/10/20 13:23:31;;;;;;;1.83;0.60;;;;;;;;;;5090184;28;20036;-72
2023/10/20 13:26:04;;;;;;;0.73;0.50;;;;;;;;;;5088774;28;20036;-72
2023/10/20 13:28:30;;;;;;;0.50;0.50;;;;;;;;;;5092393;28;20048;-71
2023/10/20 13:31:00;;;;;;;0.75;0.60;;;;;;;;;;5093865;28;20123;-71
2023/10/20 13:33:26;;;;;;;0.87;0.50;;;;;;;;;;5089524;28;20046;-71
2023/10/20 13:35:52;;;;;;;0.60;0.55;;;;;;;;;;5091097;28;20286;-71
2023/10/20 13:38:18;;;;;;;1.15;0.40;;;;;;;;;;5090546;28;20044;-72
2023/10/20 13:40:44;;;;;;;1.83;0.68;;;;;;;;;;5072637;28;20040;-71
2023/10/20 13:43:10;;;;;;;0.88;0.55;;;;;;;;;;5091510;28;20040;-71
2023/10/20 13:45:37;;;;;;;1.33;0.70;;;;;;;;;;5071700;28;20074;-71
2023/10/20 13:48:03;;;;;;;0.70;0.65;;;;;;;;;;5091272;28;20048;-71
2023/10/20 13:50:29;;;;;;;0.50;0.50;;;;;;;;;;5091586;28;20036;-71
2023/10/20 13:52:55;;;;;;;0.60;0.60;;;;;;;;;;5091971;28;20390;-71
2023/10/20 13:55:22;;;;;;;0.70;0.57;;;;;;;;;;5090694;28;20127;-71
2023/10/20 13:57:49;;;;;;;0.63;0.50;;;;;;;;;;5086519;28;20032;-71
2023/10/20 14:00:15;;;;;;;1.55;0.60;;;;;;;;;;5083126;28;20123;-71
2023/10/20 14:02:42;;;;;;;1.10;0.70;;;;;;;;;;5094424;28;20040;-71
2023/10/20 14:05:08;;;;;;;0.40;0.40;;;;;;;;;;5093562;28;20055;-71
2023/10/20 14:07:34;;;;;;;0.95;0.60;;;;;;;;;;5090954;28;20046;-72
2023/10/20 14:10:00;;;;;;;1.90;0.70;;;;;;;;;;5089885;28;20401;-72
2023/10/20 14:12:26;;;;;;;1.10;0.60;;;;;;;;;;5070895;28;20044;-71
2023/10/20 14:14:52;;;;;;;0.70;0.52;;;;;;;;;;5090965;28;20039;-71
2023/10/20 14:17:18;;;;;;;1.00;0.50;;;;;;;;;;5092009;28;20379;-71
2023/10/20 14:19:45;;;;;;;0.85;0.50;;;;;;;;;;5091488;28;20089;-71
2023/10/20 14:22:11;;;;;;;1.80;0.50;;;;;;;;;;5092853;28;20048;-71
2023/10/20 14:24:37;;;;;;;0.63;0.40;;;;;;;;;;5092487;28;20040;-71
2023/10/20 14:27:03;;;;;;;0.40;0.40;;;;;;;;;;5091401;28;20066;-71
2023/10/20 14:29:29;;;;;;;0.75;0.40;;;;;;;;;;5091828;28;20043;-71
2023/10/20 14:31:55;;;;;;;0.52;0.47;;;;;;;;;;5070673;28;20040;-71
2023/10/20 14:34:21;;;;;;;0.40;0.30;;;;;;;;;;5090605;28;20028;-71
2023/10/20 14:36:47;;;;;;;1.08;0.50;;;;;;;;;;5090536;28;20032;-71
2023/10/20 14:39:13;;;;;;;0.70;0.40;;;;;;;;;;5090435;28;20511;-71
2023/10/20 14:41:39;;;;;;;0.55;0.32;;;;;;;;;;5086946;28;20075;-71
2023/10/20 14:44:05;;;;;;;1.30;0.52;;;;;;;;;;5091096;28;20184;-71
2023/10/20 14:46:31;;;;;;;1.38;0.50;;;;;;;;;;5071830;28;20500;-71
2023/10/20 14:48:57;;;;;;;1.95;0.50;;;;;;;;;;5091419;28;20047;-71
2023/10/20 14:51:23;;;;;;;0.50;0.50;;;;;;;;;;5089107;28;20697;-71
2023/10/20 14:53:49;;;;;;;0.55;0.43;;;;;;;;;;5092438;28;20044;-71
2023/10/20 14:56:16;;;;;;;0.55;0.55;;;;;;;;;;5072829;28;20394;-71